Sea Dreamer — CRA5030 — position and weather

sailwx.info

Track history (hours):
 
Tides and Currents Weather Stations Pressure Air Temp Water Temp Dewpoint Dewpoint Depression Visibility Wind Speed Wind Dir Waves Ship Positions

Sea Dreamer

Last reported at 2017-Oct-22 15:58 UTC. Time now 2017-Nov-19 12:26 UTC.
Position N 38°41' W 009°07'.
Warning: this ship's position is 27 days out of date.

Length 12 m.

Type: Sailing vessel. MMSI: 263922260.

Date/timePositionNaut miles runAvg speedWind from/ knotsBaromVisibWave heightAir tempDewpointWater temp
2017-Oct-22 15:58N 38°41' W 009°07'1 1.8
2017-Oct-22 15:22N 38°40' W 009°08'2 4.8
2017-Oct-22 14:57N 38°39' W 009°06'0 0.2
2017-Oct-22 14:31N 38°39' W 009°06'3 4.3
2017-Oct-22 13:45N 38°42' W 009°09'1 0.6
2017-Oct-22 12:05N 38°42' W 009°10'1 4.6
2017-Oct-22 11:57N 38°42' W 009°09'2 4.7
2017-Oct-22 11:28N 38°41' W 009°12'1 1.0
2017-Oct-22 10:54N 38°41' W 009°11'  
Track history (hours):
 
Tides and Currents Weather Stations Pressure Air Temp Water Temp Dewpoint Dewpoint Depression Visibility Wind Speed Wind Dir Waves Ship Positions

Sea Dreamer

Last reported at 2017-Oct-22 15:58 UTC. Time now 2017-Nov-19 12:26 UTC.
Position N 38°41' W 009°07'.
Warning: this ship's position is 27 days out of date.

Length 12 m.

Type: Sailing vessel. MMSI: 263922260.

Date/timePositionNaut miles runAvg speedWind from/ knotsBaromVisibWave heightAir tempDewpointWater temp
2017-Oct-22 15:58N 38°41' W 009°07'1 1.8
2017-Oct-22 15:22N 38°40' W 009°08'2 4.8
2017-Oct-22 14:57N 38°39' W 009°06'0 0.2
2017-Oct-22 14:31N 38°39' W 009°06'3 4.3
2017-Oct-22 13:45N 38°42' W 009°09'1 0.6
2017-Oct-22 12:05N 38°42' W 009°10'1 4.6
2017-Oct-22 11:57N 38°42' W 009°09'2 4.7
2017-Oct-22 11:28N 38°41' W 009°12'1 1.0
2017-Oct-22 10:54N 38°41' W 009°11'  

Dump ship's entire track history